Amalia — SXMT — position and weather

sailwx.info

Track history (hours):
 
Tides and Currents Weather Stations Pressure Air Temp Water Temp Dewpoint Dewpoint Depression Visibility Wind Speed Wind Dir Waves Ship Positions

Amalia

Last reported at 2015-Aug-16 20:09 UTC. Time now 2015-Aug-30 14:04 UTC.
Position S 34°47' E 018°44'.
Warning: this ship's position is 13 days out of date.

Length 225 m; draft 8.2 m.

Type: Cargo ship. MMSI: 239652000.

Date/timePositionNaut miles runAvg speedWind from/ knotsBaromVisibWave heightAir tempDewpointWater temp
2015-Aug-16 20:09S 34°47' E 018°44'1214.6
2015-Aug-16 19:22S 34°49' E 018°58'6513.5
2015-Aug-16 14:32S 34°56' E 020°17'1312.7
2015-Aug-16 13:31S 34°53' E 020°32'25411.9
2015-Aug-15 16:08S 34°11' E 025°36'3011.7
2015-Aug-15 13:33S 34°06' E 026°12'2412.1
2015-Aug-15 11:33S 34°03' E 026°41'16413.7
2015-Aug-14 23:33S 32°17' E 029°12'1612.8
2015-Aug-14 22:20S 32°06' E 029°24'13212.2
2015-Aug-14 11:31S 30°20' E 030°56'1313.4
2015-Aug-14 10:33S 30°09' E 031°02'1313.0
2015-Aug-14 09:33S 29°57' E 031°09'6 6.0
2015-Aug-14 08:33S 29°51' E 031°12'5 4.5
2015-Aug-14 07:33S 29°48' E 031°15'1111.0
2015-Aug-14 06:33S 29°42' E 031°26'1313.3
2015-Aug-14 05:33S 29°34' E 031°38'1313.1
2015-Aug-14 04:33S 29°26' E 031°50'  
Track history (hours):
 
Tides and Currents Weather Stations Pressure Air Temp Water Temp Dewpoint Dewpoint Depression Visibility Wind Speed Wind Dir Waves Ship Positions

Amalia

Last reported at 2015-Aug-16 20:09 UTC. Time now 2015-Aug-30 14:04 UTC.
Position S 34°47' E 018°44'.
Warning: this ship's position is 13 days out of date.

Length 225 m; draft 8.2 m.

Type: Cargo ship. MMSI: 239652000.

Date/timePositionNaut miles runAvg speedWind from/ knotsBaromVisibWave heightAir tempDewpointWater temp
2015-Aug-16 20:09S 34°47' E 018°44'1214.6
2015-Aug-16 19:22S 34°49' E 018°58'6513.5
2015-Aug-16 14:32S 34°56' E 020°17'1312.7
2015-Aug-16 13:31S 34°53' E 020°32'25411.9
2015-Aug-15 16:08S 34°11' E 025°36'3011.7
2015-Aug-15 13:33S 34°06' E 026°12'2412.1
2015-Aug-15 11:33S 34°03' E 026°41'16413.7
2015-Aug-14 23:33S 32°17' E 029°12'1612.8
2015-Aug-14 22:20S 32°06' E 029°24'13212.2
2015-Aug-14 11:31S 30°20' E 030°56'1313.4
2015-Aug-14 10:33S 30°09' E 031°02'1313.0
2015-Aug-14 09:33S 29°57' E 031°09'6 6.0
2015-Aug-14 08:33S 29°51' E 031°12'5 4.5
2015-Aug-14 07:33S 29°48' E 031°15'1111.0
2015-Aug-14 06:33S 29°42' E 031°26'1313.3
2015-Aug-14 05:33S 29°34' E 031°38'1313.1
2015-Aug-14 04:33S 29°26' E 031°50'  

Dump ship's entire track history